Terminal Aerodrome Forecast
Issued by NWS

Home | Current Version | Previous Version | Text Only | Print | Product List | Glossary On
Versions: 1 2 3 4 5 6 7 8 9 10 11 12 13 14 15
000
FTUS42 KTBW 291100
TAFPIE
TAF
KPIE 291140Z 2912/3012 15005KT P6SM FEW020 SCT100
     FM291400 16007KT P6SM VCSH SCT025 SCT080 SCT250
     FM291700 19007KT P6SM VCTS SCT030CB BKN080
     FM292100 22007KT P6SM VCTS SCT030CB BKN080
     FM300200 VRB06KT P6SM SCT080 BKN250
     FM300600 09006KT P6SM FEW100 SCT250=

USA.gov is the U.S. government's official web portal to all federal, state and local government web resources and services.